Time;durP1;ratioP1;P1;durP2;ratioP2;P2;SDS_P1;SDS_P2;PMS_P1;PMS_P2;Temp;Humidity;BMP_temperature;BMP_pressure;BME280_temperature;BME280_humidity;BME280_pressure;Samples;Min_cycle;Max_cycle;Signal;HPM_P1;HPM_P2
2023/07/15 00:01:02;;;;;;;3.30;2.70;;;;;;;;;;5031160;28;20182;-76
2023/07/15 00:03:29;;;;;;;3.13;2.60;;;;;;;;;;5035609;28;20218;-76
2023/07/15 00:05:57;;;;;;;3.47;2.50;;;;;;;;;;5035356;28;20202;-75
2023/07/15 00:08:23;;;;;;;4.17;2.60;;;;;;;;;;5031481;28;20182;-75
2023/07/15 00:10:49;;;;;;;2.83;2.40;;;;;;;;;;5031363;28;20605;-75
2023/07/15 00:13:17;;;;;;;3.80;2.60;;;;;;;;;;5030992;28;20186;-75
2023/07/15 00:15:44;;;;;;;2.70;2.50;;;;;;;;;;5025729;28;20640;-75
2023/07/15 00:18:12;;;;;;;3.47;2.37;;;;;;;;;;5032973;28;20175;-76
2023/07/15 00:20:38;;;;;;;2.93;2.57;;;;;;;;;;5039737;28;20248;-76
2023/07/15 00:23:14;;;;;;;3.50;2.30;;;;;;;;;;5036364;28;20206;-75
2023/07/15 00:25:40;;;;;;;3.27;2.57;;;;;;;;;;5031483;28;20198;-75
2023/07/15 00:28:06;;;;;;;3.33;2.60;;;;;;;;;;5035428;28;20202;-76
2023/07/15 00:30:32;;;;;;;3.80;2.90;;;;;;;;;;5030660;28;20325;-76
2023/07/15 00:32:58;;;;;;;3.60;2.97;;;;;;;;;;5014751;28;20183;-75
2023/07/15 00:35:28;;;;;;;3.97;2.67;;;;;;;;;;5039566;28;20259;-75
2023/07/15 00:37:58;;;;;;;2.83;2.50;;;;;;;;;;5050446;28;20277;-76
2023/07/15 00:40:25;;;;;;;3.10;2.40;;;;;;;;;;5044415;28;20178;-75
2023/07/15 00:43:10;;;;;;;4.00;2.40;;;;;;;;;;5033712;28;20206;-76
2023/07/15 00:45:36;;;;;;;2.90;2.53;;;;;;;;;;5031589;28;20232;-76
2023/07/15 00:48:15;;;;;;;2.90;2.60;;;;;;;;;;5040414;28;20309;-76
2023/07/15 00:50:43;;;;;;;3.27;2.70;;;;;;;;;;5020446;28;20178;-76
2023/07/15 00:53:10;;;;;;;2.73;2.53;;;;;;;;;;5030566;28;20186;-76
2023/07/15 00:55:37;;;;;;;3.87;2.53;;;;;;;;;;5029922;28;20229;-76
2023/07/15 00:58:03;;;;;;;3.23;2.47;;;;;;;;;;5024053;28;20217;-76
2023/07/15 01:00:30;;;;;;;2.60;2.40;;;;;;;;;;5028455;28;20186;-75
2023/07/15 01:02:57;;;;;;;3.53;2.50;;;;;;;;;;5029466;28;20568;-75
2023/07/15 01:05:23;;;;;;;3.13;2.70;;;;;;;;;;5030524;28;20278;-75
2023/07/15 01:07:49;;;;;;;3.83;2.60;;;;;;;;;;5030757;28;20630;-75
2023/07/15 01:10:15;;;;;;;3.83;2.70;;;;;;;;;;5029950;28;20178;-75
2023/07/15 01:12:41;;;;;;;3.47;2.40;;;;;;;;;;5029668;28;20642;-76
2023/07/15 01:15:07;;;;;;;3.10;2.80;;;;;;;;;;5029690;28;20199;-75
2023/07/15 01:17:33;;;;;;;3.83;3.00;;;;;;;;;;5029052;28;20199;-75
2023/07/15 01:19:59;;;;;;;3.73;2.77;;;;;;;;;;5029408;28;20265;-75
2023/07/15 01:22:26;;;;;;;3.40;2.80;;;;;;;;;;5029329;28;20198;-75
2023/07/15 01:24:52;;;;;;;4.43;2.87;;;;;;;;;;5030709;28;20205;-75
2023/07/15 01:27:18;;;;;;;3.23;2.93;;;;;;;;;;5029229;28;20190;-75
2023/07/15 01:29:46;;;;;;;3.53;2.73;;;;;;;;;;5028627;28;20553;-75
2023/07/15 01:32:12;;;;;;;2.93;2.60;;;;;;;;;;5028741;28;20723;-75
2023/07/15 01:34:38;;;;;;;2.80;2.50;;;;;;;;;;5029324;28;20684;-75
2023/07/15 01:37:04;;;;;;;4.20;3.20;;;;;;;;;;5029112;28;20244;-75
2023/07/15 01:39:31;;;;;;;4.13;3.07;;;;;;;;;;5041537;28;20261;-75
2023/07/15 01:41:58;;;;;;;4.60;2.87;;;;;;;;;;5044665;28;20179;-75
2023/07/15 01:44:25;;;;;;;3.57;2.93;;;;;;;;;;5029053;28;20292;-75
2023/07/15 01:46:51;;;;;;;6.73;2.87;;;;;;;;;;5038169;28;20712;-75
2023/07/15 01:49:17;;;;;;;3.83;3.00;;;;;;;;;;5037091;28;20174;-76
2023/07/15 01:51:43;;;;;;;4.83;2.90;;;;;;;;;;5027812;28;20519;-76
2023/07/15 01:54:09;;;;;;;3.80;2.77;;;;;;;;;;5031511;28;20198;-76
2023/07/15 01:56:36;;;;;;;2.70;2.50;;;;;;;;;;5036454;28;20178;-76
2023/07/15 01:59:02;;;;;;;3.53;2.60;;;;;;;;;;5035358;28;20186;-76
2023/07/15 02:01:28;;;;;;;3.73;2.93;;;;;;;;;;5033857;28;20185;-76
2023/07/15 02:03:54;;;;;;;3.67;2.97;;;;;;;;;;5032826;28;20202;-76
2023/07/15 02:06:22;;;;;;;2.90;2.60;;;;;;;;;;5033080;28;20243;-76
2023/07/15 02:08:48;;;;;;;3.30;2.40;;;;;;;;;;5033417;28;20178;-76
2023/07/15 02:11:14;;;;;;;4.47;2.70;;;;;;;;;;5034573;28;20268;-76
2023/07/15 02:13:40;;;;;;;5.20;2.80;;;;;;;;;;5034724;28;20196;-76
2023/07/15 02:16:07;;;;;;;3.67;2.50;;;;;;;;;;5032114;28;20178;-76
2023/07/15 02:18:33;;;;;;;2.87;2.53;;;;;;;;;;5035027;28;20190;-76
2023/07/15 02:20:59;;;;;;;6.17;2.70;;;;;;;;;;5031508;28;20539;-76
2023/07/15 02:23:26;;;;;;;3.40;2.57;;;;;;;;;;5032398;28;20205;-76
2023/07/15 02:25:52;;;;;;;3.50;2.70;;;;;;;;;;5038019;28;20198;-75
2023/07/15 02:28:18;;;;;;;3.23;2.63;;;;;;;;;;5051981;28;20196;-75
2023/07/15 02:30:44;;;;;;;4.93;2.70;;;;;;;;;;5031663;28;20673;-75
2023/07/15 02:33:10;;;;;;;2.90;2.60;;;;;;;;;;5050915;28;20184;-75
2023/07/15 02:35:39;;;;;;;5.47;2.80;;;;;;;;;;5038216;28;20284;-75
2023/07/15 02:38:05;;;;;;;3.37;2.70;;;;;;;;;;5032333;28;20720;-76
2023/07/15 02:40:32;;;;;;;3.13;2.53;;;;;;;;;;5033538;28;20666;-76
2023/07/15 02:42:58;;;;;;;2.90;2.57;;;;;;;;;;5035093;28;20210;-76
2023/07/15 02:45:26;;;;;;;4.40;3.10;;;;;;;;;;5032330;28;20209;-76
2023/07/15 02:47:52;;;;;;;4.40;2.80;;;;;;;;;;5033117;28;20600;-76
2023/07/15 02:50:18;;;;;;;3.97;2.90;;;;;;;;;;5032616;28;20623;-76
2023/07/15 02:52:45;;;;;;;4.30;2.70;;;;;;;;;;5032127;28;20217;-75
2023/07/15 02:55:12;;;;;;;3.77;3.03;;;;;;;;;;5015225;28;20198;-76
2023/07/15 02:57:38;;;;;;;5.87;3.00;;;;;;;;;;5033343;28;20201;-76
2023/07/15 03:00:11;;;;;;;4.07;2.90;;;;;;;;;;5039975;28;20186;-76
2023/07/15 03:02:38;;;;;;;4.60;2.83;;;;;;;;;;5033498;28;20193;-76
2023/07/15 03:05:06;;;;;;;4.07;3.13;;;;;;;;;;5032130;28;20221;-76
2023/07/15 03:07:32;;;;;;;5.07;3.17;;;;;;;;;;5036207;28;20190;-76
2023/07/15 03:09:58;;;;;;;3.63;3.00;;;;;;;;;;5044963;28;20182;-76
2023/07/15 03:12:24;;;;;;;3.07;2.57;;;;;;;;;;5034152;28;20182;-76
2023/07/15 03:14:50;;;;;;;3.53;2.50;;;;;;;;;;5027962;28;20218;-75
2023/07/15 03:17:17;;;;;;;3.47;2.70;;;;;;;;;;5032500;28;20182;-76
2023/07/15 03:19:44;;;;;;;5.87;2.67;;;;;;;;;;5032031;28;20196;-76
2023/07/15 03:22:10;;;;;;;2.93;2.60;;;;;;;;;;5015444;28;20182;-76
2023/07/15 03:24:36;;;;;;;3.00;2.70;;;;;;;;;;5031193;28;20202;-75
2023/07/15 03:27:03;;;;;;;3.00;2.70;;;;;;;;;;5032559;28;20262;-75
2023/07/15 03:29:29;;;;;;;3.50;2.60;;;;;;;;;;5032142;28;20668;-76
2023/07/15 03:31:55;;;;;;;4.70;2.70;;;;;;;;;;5031445;28;20179;-76
2023/07/15 03:34:21;;;;;;;3.27;2.57;;;;;;;;;;5031093;28;20678;-76
2023/07/15 03:36:47;;;;;;;3.87;2.90;;;;;;;;;;5032623;28;20175;-76
2023/07/15 03:39:13;;;;;;;3.10;2.90;;;;;;;;;;5030734;28;20194;-76
2023/07/15 03:41:39;;;;;;;3.97;3.07;;;;;;;;;;5032374;28;20316;-76
2023/07/15 03:44:06;;;;;;;3.90;2.67;;;;;;;;;;5031004;28;20690;-75
2023/07/15 03:46:33;;;;;;;3.27;2.90;;;;;;;;;;5031984;28;20670;-75
2023/07/15 03:48:59;;;;;;;3.77;2.97;;;;;;;;;;5032490;28;20999;-77
2023/07/15 03:51:25;;;;;;;4.00;2.80;;;;;;;;;;5031859;28;20171;-75
2023/07/15 03:53:51;;;;;;;3.07;2.80;;;;;;;;;;5030888;28;20186;-76
2023/07/15 03:56:17;;;;;;;3.40;2.90;;;;;;;;;;5031691;28;20244;-76
2023/07/15 03:58:43;;;;;;;3.20;2.90;;;;;;;;;;5032174;28;20257;-76
2023/07/15 04:01:10;;;;;;;3.23;2.80;;;;;;;;;;5031707;28;20682;-76
2023/07/15 04:03:36;;;;;;;3.07;2.77;;;;;;;;;;5035946;28;20297;-76
2023/07/15 04:06:03;;;;;;;4.20;2.90;;;;;;;;;;5032164;28;20210;-76
2023/07/15 04:08:29;;;;;;;3.43;2.80;;;;;;;;;;5031862;28;20649;-76
2023/07/15 04:10:55;;;;;;;3.30;2.77;;;;;;;;;;5031268;28;20231;-76
2023/07/15 04:13:21;;;;;;;3.07;2.70;;;;;;;;;;5031172;28;20252;-75
2023/07/15 04:15:47;;;;;;;3.40;2.77;;;;;;;;;;5010700;28;20202;-75
2023/07/15 04:18:13;;;;;;;3.50;3.20;;;;;;;;;;5026456;28;20257;-75
2023/07/15 04:20:40;;;;;;;3.33;3.03;;;;;;;;;;5040005;28;20197;-76
2023/07/15 04:23:06;;;;;;;3.23;2.93;;;;;;;;;;5030621;28;20229;-76
2023/07/15 04:25:32;;;;;;;2.87;2.60;;;;;;;;;;5031852;28;20199;-76
2023/07/15 04:27:59;;;;;;;6.30;3.27;;;;;;;;;;5030000;28;20648;-76
2023/07/15 04:30:25;;;;;;;3.50;3.00;;;;;;;;;;5028382;28;20171;-76
2023/07/15 04:32:51;;;;;;;3.53;2.90;;;;;;;;;;5031509;28;20179;-76
2023/07/15 04:35:17;;;;;;;2.90;2.63;;;;;;;;;;5031756;28;20608;-76
2023/07/15 04:37:43;;;;;;;3.20;2.90;;;;;;;;;;5031286;28;20178;-76
2023/07/15 04:40:11;;;;;;;4.17;2.90;;;;;;;;;;5028356;28;20565;-76
2023/07/15 04:42:37;;;;;;;4.23;2.87;;;;;;;;;;5031202;28;20229;-76
2023/07/15 04:45:03;;;;;;;4.00;2.63;;;;;;;;;;5029866;28;20868;-76
2023/07/15 04:47:29;;;;;;;5.30;3.30;;;;;;;;;;5031245;28;20249;-76
2023/07/15 04:49:56;;;;;;;3.60;2.90;;;;;;;;;;5031307;28;20650;-75
2023/07/15 04:52:22;;;;;;;3.93;3.00;;;;;;;;;;5031092;28;20653;-75
2023/07/15 04:54:48;;;;;;;4.17;2.80;;;;;;;;;;5030966;28;20290;-75
2023/07/15 04:57:16;;;;;;;3.33;2.70;;;;;;;;;;5030728;28;20193;-76
2023/07/15 04:59:43;;;;;;;4.87;3.30;;;;;;;;;;5029278;28;20198;-71
2023/07/15 05:02:09;;;;;;;3.17;2.80;;;;;;;;;;5031051;28;20199;-73
2023/07/15 05:04:35;;;;;;;3.83;2.90;;;;;;;;;;5031853;28;20225;-73
2023/07/15 05:07:01;;;;;;;4.93;2.73;;;;;;;;;;5024529;28;20186;-74
2023/07/15 05:09:30;;;;;;;3.43;2.90;;;;;;;;;;5029652;28;20179;-74
2023/07/15 05:11:57;;;;;;;4.10;2.80;;;;;;;;;;5030788;28;20178;-74
2023/07/15 05:14:23;;;;;;;2.73;2.50;;;;;;;;;;5029583;28;20205;-73
2023/07/15 05:16:49;;;;;;;3.10;2.50;;;;;;;;;;5030651;28;20239;-73
2023/07/15 05:19:15;;;;;;;4.20;3.00;;;;;;;;;;5033029;28;20305;-74
2023/07/15 05:21:41;;;;;;;3.30;3.00;;;;;;;;;;5030471;28;20190;-74
2023/07/15 05:24:08;;;;;;;3.47;2.80;;;;;;;;;;5043370;28;20701;-73
2023/07/15 05:26:34;;;;;;;2.70;2.50;;;;;;;;;;5030850;28;20273;-74
2023/07/15 05:29:00;;;;;;;2.70;2.50;;;;;;;;;;5028504;28;20182;-73
2023/07/15 05:31:26;;;;;;;3.10;2.80;;;;;;;;;;5045196;28;20268;-74
2023/07/15 05:33:52;;;;;;;4.03;2.73;;;;;;;;;;5037859;28;20181;-74
2023/07/15 05:36:18;;;;;;;3.30;2.90;;;;;;;;;;5040150;28;20661;-73
2023/07/15 05:38:44;;;;;;;3.53;2.90;;;;;;;;;;5035036;28;20190;-73
2023/07/15 05:41:11;;;;;;;5.50;3.27;;;;;;;;;;5039029;28;20178;-74
2023/07/15 05:43:37;;;;;;;4.20;2.67;;;;;;;;;;5038573;28;20209;-73
2023/07/15 05:46:04;;;;;;;3.93;2.70;;;;;;;;;;5047664;28;20221;-74
2023/07/15 05:48:30;;;;;;;3.97;2.50;;;;;;;;;;5043479;28;20174;-74
2023/07/15 05:50:56;;;;;;;3.47;2.80;;;;;;;;;;5036624;28;20202;-74
2023/07/15 05:53:22;;;;;;;2.83;2.57;;;;;;;;;;5048672;28;20209;-73
2023/07/15 05:55:48;;;;;;;2.67;2.33;;;;;;;;;;5035625;28;20228;-74
2023/07/15 05:58:14;;;;;;;4.50;2.80;;;;;;;;;;5035891;28;20187;-73
2023/07/15 06:00:40;;;;;;;2.90;2.43;;;;;;;;;;5036141;28;20557;-73
2023/07/15 06:03:08;;;;;;;3.50;2.73;;;;;;;;;;5037236;28;20214;-74
2023/07/15 06:05:35;;;;;;;3.43;2.90;;;;;;;;;;5041471;28;20206;-73
2023/07/15 06:08:01;;;;;;;2.63;2.43;;;;;;;;;;5041415;28;20206;-74
2023/07/15 06:10:27;;;;;;;4.70;2.60;;;;;;;;;;5034706;28;20740;-76
2023/07/15 06:12:53;;;;;;;3.00;2.50;;;;;;;;;;5035499;28;20687;-73
2023/07/15 06:15:20;;;;;;;3.73;2.50;;;;;;;;;;5040287;28;20210;-74
2023/07/15 06:17:46;;;;;;;3.60;2.30;;;;;;;;;;5040831;28;20186;-74
2023/07/15 06:20:12;;;;;;;2.90;2.57;;;;;;;;;;5038645;28;20178;-73
2023/07/15 06:22:38;;;;;;;3.97;2.50;;;;;;;;;;5036484;28;20210;-73
2023/07/15 06:25:04;;;;;;;2.97;2.50;;;;;;;;;;5037464;28;20205;-74
2023/07/15 06:27:30;;;;;;;2.60;2.23;;;;;;;;;;5034358;28;20182;-73
2023/07/15 06:29:57;;;;;;;2.70;2.50;;;;;;;;;;5041428;28;20201;-74
2023/07/15 06:32:23;;;;;;;3.10;2.63;;;;;;;;;;5041115;28;20179;-74
2023/07/15 06:34:49;;;;;;;4.87;2.50;;;;;;;;;;5049569;28;20209;-74
2023/07/15 06:37:15;;;;;;;3.80;2.60;;;;;;;;;;5042058;28;20208;-74
2023/07/15 06:39:41;;;;;;;3.67;2.70;;;;;;;;;;5021144;28;20656;-74
2023/07/15 06:42:07;;;;;;;2.40;2.20;;;;;;;;;;5037703;28;20174;-73
2023/07/15 06:44:34;;;;;;;6.30;2.57;;;;;;;;;;5031158;28;20280;-73
2023/07/15 06:47:00;;;;;;;4.20;2.30;;;;;;;;;;5036206;28;20575;-74
2023/07/15 06:49:26;;;;;;;3.33;2.43;;;;;;;;;;5046396;28;20586;-74
2023/07/15 06:51:52;;;;;;;2.73;2.37;;;;;;;;;;5048131;28;20262;-74
2023/07/15 06:54:18;;;;;;;3.40;2.30;;;;;;;;;;5035327;28;20225;-74
2023/07/15 06:56:44;;;;;;;6.17;2.80;;;;;;;;;;5034199;28;20278;-75
2023/07/15 06:59:11;;;;;;;3.77;2.63;;;;;;;;;;5033315;28;20183;-74
2023/07/15 07:01:37;;;;;;;3.93;2.77;;;;;;;;;;5031701;28;20182;-74
2023/07/15 07:04:03;;;;;;;4.50;2.87;;;;;;;;;;5033772;28;20257;-74
2023/07/15 07:06:29;;;;;;;2.90;2.53;;;;;;;;;;5031568;28;20248;-73
2023/07/15 07:08:55;;;;;;;3.50;2.40;;;;;;;;;;5032312;28;20193;-74
2023/07/15 07:11:21;;;;;;;3.13;2.60;;;;;;;;;;5032487;28;20244;-73
2023/07/15 07:13:48;;;;;;;3.27;2.20;;;;;;;;;;5032581;28;20269;-73
2023/07/15 07:16:14;;;;;;;2.67;2.40;;;;;;;;;;5025670;28;20184;-73
2023/07/15 07:18:40;;;;;;;3.77;2.50;;;;;;;;;;5031909;28;20189;-74
2023/07/15 07:21:06;;;;;;;2.90;2.60;;;;;;;;;;5032077;28;20184;-74
2023/07/15 07:23:32;;;;;;;3.10;2.40;;;;;;;;;;5032940;28;20198;-74
2023/07/15 07:26:00;;;;;;;4.07;2.43;;;;;;;;;;5033496;28;20205;-74
2023/07/15 07:28:39;;;;;;;2.77;2.50;;;;;;;;;;5033011;28;20182;-74
2023/07/15 07:31:05;;;;;;;2.40;2.20;;;;;;;;;;5015770;28;20275;-74
2023/07/15 07:33:32;;;;;;;3.50;2.57;;;;;;;;;;5034076;28;20645;-77
2023/07/15 07:35:58;;;;;;;3.50;2.70;;;;;;;;;;5022090;28;20210;-75
2023/07/15 07:38:24;;;;;;;2.57;2.37;;;;;;;;;;5028969;28;20191;-75
2023/07/15 07:40:50;;;;;;;4.33;2.63;;;;;;;;;;5027178;28;20189;-75
2023/07/15 07:43:16;;;;;;;2.57;2.23;;;;;;;;;;5028571;28;20209;-75
2023/07/15 07:45:42;;;;;;;4.43;2.90;;;;;;;;;;5030101;28;20214;-74
2023/07/15 07:48:08;;;;;;;2.73;2.50;;;;;;;;;;5027409;28;20249;-74
2023/07/15 07:50:36;;;;;;;3.20;2.23;;;;;;;;;;5025387;28;20231;-74
2023/07/15 07:53:02;;;;;;;2.67;2.47;;;;;;;;;;5026598;28;20280;-75
2023/07/15 07:55:28;;;;;;;4.10;2.60;;;;;;;;;;5029122;28;20609;-75
2023/07/15 07:57:54;;;;;;;3.00;2.70;;;;;;;;;;5027948;28;20269;-75
2023/07/15 08:00:20;;;;;;;3.03;2.70;;;;;;;;;;5029061;28;20193;-75
2023/07/15 08:02:47;;;;;;;4.73;2.90;;;;;;;;;;5028869;28;20210;-75
2023/07/15 08:05:13;;;;;;;3.70;2.63;;;;;;;;;;5028686;28;20209;-75
2023/07/15 08:07:39;;;;;;;2.73;2.53;;;;;;;;;;5027205;28;20211;-74
2023/07/15 08:10:05;;;;;;;2.97;2.50;;;;;;;;;;5027980;28;20189;-75
2023/07/15 08:12:31;;;;;;;3.20;2.90;;;;;;;;;;5031321;28;20186;-75
2023/07/15 08:14:58;;;;;;;3.60;2.53;;;;;;;;;;5031405;28;20255;-75
2023/07/15 08:17:24;;;;;;;4.57;2.43;;;;;;;;;;5029833;28;20789;-75
2023/07/15 08:19:50;;;;;;;2.90;2.50;;;;;;;;;;5027363;28;20234;-75
2023/07/15 08:22:16;;;;;;;2.77;2.40;;;;;;;;;;5030845;28;20186;-75
2023/07/15 08:24:42;;;;;;;4.50;2.77;;;;;;;;;;5031236;28;20741;-75
2023/07/15 08:27:08;;;;;;;3.10;2.77;;;;;;;;;;5029183;28;20553;-75
2023/07/15 08:29:34;;;;;;;2.90;2.60;;;;;;;;;;5031024;28;20167;-75
2023/07/15 08:32:00;;;;;;;3.40;2.47;;;;;;;;;;5029334;28;20275;-75
2023/07/15 08:34:27;;;;;;;4.40;2.90;;;;;;;;;;5029199;28;20828;-75
2023/07/15 08:36:53;;;;;;;4.40;3.00;;;;;;;;;;5030288;28;20851;-75
2023/07/15 08:39:19;;;;;;;3.83;2.67;;;;;;;;;;5029574;28;20214;-75
2023/07/15 08:41:46;;;;;;;3.83;3.00;;;;;;;;;;5030282;28;20189;-75
2023/07/15 08:44:14;;;;;;;3.10;2.80;;;;;;;;;;5029475;28;20218;-75
2023/07/15 08:46:42;;;;;;;3.40;3.00;;;;;;;;;;5030264;28;20566;-75
2023/07/15 08:49:08;;;;;;;3.13;2.60;;;;;;;;;;5029414;28;20178;-75
2023/07/15 08:51:35;;;;;;;4.40;2.93;;;;;;;;;;5026309;28;20189;-75
2023/07/15 08:54:02;;;;;;;4.93;2.70;;;;;;;;;;5023207;28;20182;-75
2023/07/15 08:56:29;;;;;;;5.13;3.10;;;;;;;;;;5024813;28;20203;-75
2023/07/15 08:58:56;;;;;;;3.33;3.03;;;;;;;;;;5027900;28;20194;-75
2023/07/15 09:01:22;;;;;;;2.50;2.30;;;;;;;;;;5032041;28;20205;-76
2023/07/15 09:03:48;;;;;;;4.90;2.90;;;;;;;;;;5028610;28;20249;-75
2023/07/15 09:06:15;;;;;;;3.33;2.90;;;;;;;;;;5027788;28;20473;-75
2023/07/15 09:08:42;;;;;;;4.80;2.90;;;;;;;;;;5025132;28;20328;-77
2023/07/15 09:11:08;;;;;;;3.70;2.73;;;;;;;;;;5023022;28;20180;-77
2023/07/15 09:13:35;;;;;;;4.30;2.97;;;;;;;;;;5027229;28;20195;-77
2023/07/15 09:16:02;;;;;;;3.47;2.70;;;;;;;;;;5026527;28;20206;-76
2023/07/15 09:18:28;;;;;;;3.27;2.97;;;;;;;;;;5027402;28;20192;-77
2023/07/15 09:21:08;;;;;;;4.57;2.83;;;;;;;;;;5028506;28;20604;-76
2023/07/15 09:23:34;;;;;;;3.77;2.80;;;;;;;;;;5025449;28;20615;-76
2023/07/15 09:26:00;;;;;;;3.63;2.73;;;;;;;;;;5028491;28;20195;-79
2023/07/15 09:28:27;;;;;;;3.53;2.77;;;;;;;;;;5026326;28;20228;-77
2023/07/15 09:30:53;;;;;;;4.07;2.60;;;;;;;;;;5032392;28;20187;-78
2023/07/15 09:33:33;;;;;;;3.23;2.60;;;;;;;;;;5038349;28;20340;-77
2023/07/15 09:36:00;;;;;;;5.27;2.80;;;;;;;;;;5029592;28;20556;-77
2023/07/15 09:38:33;;;;;;;2.87;2.57;;;;;;;;;;5044005;28;20189;-78
2023/07/15 09:41:00;;;;;;;2.67;2.43;;;;;;;;;;5041891;28;20187;-77
2023/07/15 09:43:48;;;;;;;2.70;2.50;;;;;;;;;;5032918;28;20299;-78
2023/07/15 09:46:18;;;;;;;3.13;2.50;;;;;;;;;;5034144;28;20179;-78
2023/07/15 09:48:44;;;;;;;2.80;2.60;;;;;;;;;;5033810;28;20216;-77
2023/07/15 09:51:12;;;;;;;4.67;2.30;;;;;;;;;;5027186;28;20181;-78
2023/07/15 09:53:40;;;;;;;4.33;2.70;;;;;;;;;;5030498;28;20190;-79
2023/07/15 09:56:07;;;;;;;3.07;2.57;;;;;;;;;;5032651;28;20256;-79
2023/07/15 09:58:33;;;;;;;4.53;2.93;;;;;;;;;;5032999;28;20220;-79
2023/07/15 10:01:11;;;;;;;3.47;2.90;;;;;;;;;;5037070;28;20283;-79
2023/07/15 10:03:46;;;;;;;2.83;2.50;;;;;;;;;;5038097;28;20208;-77
2023/07/15 10:06:12;;;;;;;6.20;2.90;;;;;;;;;;5027109;28;20187;-77
2023/07/15 10:08:39;;;;;;;5.70;3.17;;;;;;;;;;5041209;28;20171;-77
2023/07/15 10:11:06;;;;;;;3.67;3.07;;;;;;;;;;5050601;28;20648;-77
2023/07/15 10:13:33;;;;;;;3.67;3.30;;;;;;;;;;5038531;28;20669;-77
2023/07/15 10:16:00;;;;;;;5.50;3.07;;;;;;;;;;5026268;28;20215;-77
2023/07/15 10:18:31;;;;;;;4.70;2.87;;;;;;;;;;5028464;28;20190;-77
2023/07/15 10:20:58;;;;;;;5.17;2.77;;;;;;;;;;5026567;28;20631;-77
2023/07/15 10:23:25;;;;;;;5.47;2.77;;;;;;;;;;5030732;28;20198;-78
2023/07/15 10:26:01;;;;;;;3.60;2.70;;;;;;;;;;5036367;28;20219;-77
2023/07/15 10:28:30;;;;;;;4.37;2.90;;;;;;;;;;5050902;28;20525;-77
2023/07/15 10:31:13;;;;;;;4.50;2.90;;;;;;;;;;5041860;28;20652;-77
2023/07/15 10:33:59;;;;;;;2.90;2.70;;;;;;;;;;5033790;28;20200;-77
2023/07/15 10:36:38;;;;;;;4.43;2.97;;;;;;;;;;5029295;28;20252;-77
2023/07/15 10:39:11;;;;;;;6.13;3.07;;;;;;;;;;5033145;28;20175;-77
2023/07/15 10:41:48;;;;;;;4.43;2.83;;;;;;;;;;5033463;28;20195;-77
2023/07/15 10:44:15;;;;;;;3.60;2.90;;;;;;;;;;5034226;28;20210;-77
2023/07/15 10:46:43;;;;;;;6.00;3.00;;;;;;;;;;5036424;28;20269;-77
2023/07/15 10:49:09;;;;;;;3.50;2.80;;;;;;;;;;5045663;28;20499;-74
2023/07/15 10:51:36;;;;;;;2.93;2.73;;;;;;;;;;5032754;28;20256;-78
2023/07/15 10:54:02;;;;;;;3.03;2.73;;;;;;;;;;5034131;28;20257;-79
2023/07/15 10:56:28;;;;;;;3.63;2.87;;;;;;;;;;5026978;28;20208;-79
2023/07/15 10:58:57;;;;;;;3.07;2.77;;;;;;;;;;5035781;28;20522;-78
2023/07/15 11:01:23;;;;;;;3.30;3.00;;;;;;;;;;5033740;28;20211;-78
2023/07/15 11:03:50;;;;;;;5.93;3.00;;;;;;;;;;5039477;28;20203;-78
2023/07/15 11:06:16;;;;;;;3.63;2.90;;;;;;;;;;5033288;28;20558;-79
2023/07/15 11:08:44;;;;;;;3.23;2.90;;;;;;;;;;5034765;28;20174;-78
2023/07/15 11:11:10;;;;;;;3.10;2.80;;;;;;;;;;5042637;28;20803;-78
2023/07/15 11:13:41;;;;;;;4.53;3.23;;;;;;;;;;5038071;28;20183;-78
2023/07/15 11:16:07;;;;;;;4.60;2.80;;;;;;;;;;5034039;28;20216;-79
2023/07/15 11:18:33;;;;;;;3.53;2.77;;;;;;;;;;5033290;28;20660;-76
2023/07/15 11:21:00;;;;;;;3.40;2.90;;;;;;;;;;5034609;28;20212;-78
2023/07/15 11:23:29;;;;;;;5.90;3.00;;;;;;;;;;5033383;28;20202;-77
2023/07/15 11:25:59;;;;;;;3.20;2.90;;;;;;;;;;5039401;28;20245;-78
2023/07/15 11:28:25;;;;;;;3.33;3.00;;;;;;;;;;5051986;28;20599;-78
2023/07/15 11:30:51;;;;;;;3.30;2.90;;;;;;;;;;5036019;28;20177;-76
2023/07/15 11:33:17;;;;;;;4.00;3.00;;;;;;;;;;5028419;28;20225;-81
2023/07/15 11:35:45;;;;;;;5.43;2.90;;;;;;;;;;5038552;28;20629;-76
2023/07/15 11:38:12;;;;;;;3.57;2.90;;;;;;;;;;5032880;28;20187;-76
2023/07/15 11:40:58;;;;;;;5.70;3.10;;;;;;;;;;5031719;28;20621;-76
2023/07/15 11:43:27;;;;;;;3.60;2.90;;;;;;;;;;5030214;28;20228;-75
2023/07/15 11:45:57;;;;;;;3.97;3.40;;;;;;;;;;5037414;28;20712;-74
2023/07/15 11:48:33;;;;;;;3.83;3.20;;;;;;;;;;5035155;28;20540;-74
2023/07/15 11:51:09;;;;;;;4.23;3.50;;;;;;;;;;5029689;28;20178;-74
2023/07/15 11:53:38;;;;;;;5.30;3.30;;;;;;;;;;5035458;28;20189;-74
2023/07/15 11:56:08;;;;;;;7.37;3.20;;;;;;;;;;5034916;28;20205;-74
2023/07/15 11:58:48;;;;;;;4.20;3.07;;;;;;;;;;5048792;28;20238;-74
2023/07/15 12:01:15;;;;;;;5.77;2.87;;;;;;;;;;5020176;28;20278;-74
2023/07/15 12:03:43;;;;;;;3.53;3.00;;;;;;;;;;5029169;28;20401;-73
2023/07/15 12:06:14;;;;;;;3.20;2.90;;;;;;;;;;5030518;28;20219;-73
2023/07/15 12:08:40;;;;;;;5.40;3.60;;;;;;;;;;5028921;28;20208;-73
2023/07/15 12:11:06;;;;;;;5.37;3.47;;;;;;;;;;5036047;28;20722;-73
2023/07/15 12:13:32;;;;;;;9.67;5.17;;;;;;;;;;5031901;28;20238;-73
2023/07/15 12:16:00;;;;;;;5.60;5.00;;;;;;;;;;5030981;28;20202;-73
2023/07/15 12:18:26;;;;;;;7.17;5.30;;;;;;;;;;5032262;28;20186;-73
2023/07/15 12:20:52;;;;;;;8.70;4.80;;;;;;;;;;5030892;28;20194;-73
2023/07/15 12:23:18;;;;;;;5.47;4.13;;;;;;;;;;5020055;28;20794;-73
2023/07/15 12:25:44;;;;;;;5.83;3.70;;;;;;;;;;5028331;28;20202;-73
2023/07/15 12:28:10;;;;;;;4.97;3.53;;;;;;;;;;5032688;28;20209;-73
2023/07/15 12:30:36;;;;;;;5.87;3.43;;;;;;;;;;5031583;28;20167;-73
2023/07/15 12:33:03;;;;;;;4.60;3.33;;;;;;;;;;5024233;28;20202;-75
2023/07/15 12:35:29;;;;;;;5.40;3.10;;;;;;;;;;5021323;28;20198;-75
2023/07/15 12:37:55;;;;;;;4.17;3.47;;;;;;;;;;5028455;28;20188;-75
2023/07/15 12:40:21;;;;;;;4.93;3.60;;;;;;;;;;5025433;28;20199;-75
2023/07/15 12:42:47;;;;;;;4.73;3.60;;;;;;;;;;5028105;28;20221;-75
2023/07/15 12:45:15;;;;;;;3.80;3.20;;;;;;;;;;5028697;28;20211;-75
2023/07/15 12:47:41;;;;;;;4.27;3.30;;;;;;;;;;5030045;28;20772;-75
2023/07/15 12:50:07;;;;;;;3.80;3.10;;;;;;;;;;5024544;28;20200;-76
2023/07/15 12:52:33;;;;;;;4.60;3.47;;;;;;;;;;5027453;28;20204;-75
2023/07/15 12:55:02;;;;;;;3.40;3.10;;;;;;;;;;5028079;28;20204;-75
2023/07/15 12:57:28;;;;;;;4.70;3.40;;;;;;;;;;5028419;28;20273;-75
2023/07/15 12:59:54;;;;;;;3.97;3.30;;;;;;;;;;5028435;28;20677;-75
2023/07/15 13:02:21;;;;;;;3.53;3.10;;;;;;;;;;5028295;28;20191;-76
2023/07/15 13:04:47;;;;;;;4.67;3.53;;;;;;;;;;5024358;28;20813;-74
2023/07/15 13:07:13;;;;;;;6.07;3.37;;;;;;;;;;5026864;28;20192;-76
2023/07/15 13:09:39;;;;;;;3.83;3.00;;;;;;;;;;5029377;28;20549;-76
2023/07/15 13:12:05;;;;;;;4.20;3.60;;;;;;;;;;5028703;28;20257;-75
2023/07/15 13:14:31;;;;;;;4.43;3.20;;;;;;;;;;5028036;28;20303;-75
2023/07/15 13:16:57;;;;;;;4.67;3.50;;;;;;;;;;5024133;28;20178;-75
2023/07/15 13:19:24;;;;;;;6.33;3.60;;;;;;;;;;5027550;28;20202;-74
2023/07/15 13:21:50;;;;;;;5.10;3.90;;;;;;;;;;5028663;28;20190;-81
2023/07/15 13:24:16;;;;;;;5.00;3.57;;;;;;;;;;5026247;28;20311;-75
2023/07/15 13:26:42;;;;;;;4.20;3.30;;;;;;;;;;5027734;28;20203;-76
2023/07/15 13:29:08;;;;;;;5.67;3.50;;;;;;;;;;5028195;28;20192;-76
2023/07/15 13:31:34;;;;;;;3.83;3.53;;;;;;;;;;5029398;28;20185;-78
2023/07/15 13:34:00;;;;;;;6.10;3.60;;;;;;;;;;5028733;28;20288;-76
2023/07/15 13:36:26;;;;;;;6.30;3.73;;;;;;;;;;5026951;28;20688;-75
2023/07/15 13:38:53;;;;;;;8.00;3.83;;;;;;;;;;5027041;28;20568;-76
2023/07/15 13:41:19;;;;;;;6.80;3.50;;;;;;;;;;5024657;28;20188;-75
2023/07/15 13:43:47;;;;;;;3.70;3.37;;;;;;;;;;5027523;28;20199;-75
2023/07/15 13:46:13;;;;;;;4.00;3.60;;;;;;;;;;5027732;28;20188;-76
2023/07/15 13:48:39;;;;;;;5.60;4.00;;;;;;;;;;5029557;28;20265;-75
2023/07/15 13:51:05;;;;;;;4.23;3.67;;;;;;;;;;5026786;28;20635;-75
2023/07/15 13:53:31;;;;;;;4.23;3.47;;;;;;;;;;5031372;28;20695;-76
2023/07/15 13:55:58;;;;;;;3.67;3.30;;;;;;;;;;5030158;28;20687;-74
2023/07/15 13:58:24;;;;;;;5.53;3.80;;;;;;;;;;5032432;28;20190;-75
2023/07/15 14:00:50;;;;;;;5.47;3.27;;;;;;;;;;5033060;28;20187;-75
2023/07/15 14:03:16;;;;;;;6.43;3.63;;;;;;;;;;5030906;28;20206;-74
2023/07/15 14:05:42;;;;;;;5.43;4.00;;;;;;;;;;5031529;28;20281;-75
2023/07/15 14:08:08;;;;;;;7.60;4.27;;;;;;;;;;5031162;28;21204;-75
2023/07/15 14:10:34;;;;;;;5.73;3.90;;;;;;;;;;5028103;28;20228;-74
2023/07/15 14:13:01;;;;;;;5.47;4.07;;;;;;;;;;5032626;28;20199;-75
2023/07/15 14:15:27;;;;;;;6.13;3.80;;;;;;;;;;5033497;28;20279;-76
2023/07/15 14:17:55;;;;;;;4.50;4.10;;;;;;;;;;5032396;28;20717;-74
2023/07/15 14:20:22;;;;;;;5.23;3.90;;;;;;;;;;5032722;28;20228;-74
2023/07/15 14:22:48;;;;;;;4.87;3.80;;;;;;;;;;5031251;28;20210;-75
2023/07/15 14:25:14;;;;;;;4.23;3.77;;;;;;;;;;5032552;28;20202;-74
2023/07/15 14:27:40;;;;;;;4.10;3.67;;;;;;;;;;5032352;28;20171;-74
2023/07/15 14:30:07;;;;;;;5.57;3.70;;;;;;;;;;5032779;28;20607;-75
2023/07/15 14:32:33;;;;;;;6.10;3.80;;;;;;;;;;5032357;28;20184;-74
2023/07/15 14:34:59;;;;;;;5.23;3.57;;;;;;;;;;5032024;28;20198;-74
2023/07/15 14:37:25;;;;;;;5.57;3.83;;;;;;;;;;5032437;28;20186;-74
2023/07/15 14:39:51;;;;;;;4.63;3.67;;;;;;;;;;5030109;28;20607;-74
2023/07/15 14:42:18;;;;;;;4.07;3.67;;;;;;;;;;5031850;28;20716;-74